• Join FlightAware (Why Join?)
  • Login
  • US Flag 
03:02AM EDT


 

Airport Tracker/Info


-or-


 

Live Flight TrackerFlight Track Log ✈ N888FM ✈ 31-Jan-2014 ✈ KAVP - KBGM

Flight Track Log - Related Links

Times and Time Zones

All times are in EST time to prevent confusion due to time zone crossing. See the N888FM flight status page for this flight to view local times or setup timezone preferences in your user account.

Time Position Orientation Groundspeed Altitude Reporting Facility
EST Latitude Longitude Course Direction KTS MPH feet Rate Location/Type
04:11PM 41.5800 -75.8400 340° North  Level FlightAware Approximate
04:12PM 41.6438 -75.8719 340° North  Level FlightAware Approximate
04:13PM 41.7072 -75.9048 334° Northwest  Level FlightAware Approximate
04:14PM 41.7691 -75.9423 341° North  Level FlightAware Approximate
04:15PM 41.8333 -75.9724 341° North  Level FlightAware Approximate
04:16PM 41.8975 -76.0026 341° North  Level FlightAware Approximate
04:17PM 41.9617 -76.0328 341° North  Level FlightAware Approximate
04:18PM 42.0259 -76.0631 341° North  Level FlightAware Approximate
04:19PM 42.0897 -76.0949 340° North  Level FlightAware Approximate
04:20PM 42.1500 -76.1323 90° East  Level FlightAware Approximate
04:21PM 42.1776 -76.0506 66° East  Level FlightAware Approximate
04:22PM 42.2000 -75.9667 90° East  Level FlightAware Approximate
04:23PM 42.2084 -75.9796 90° East  Level Estimated
04:24PM 42.2084 -75.9796 90° East  Level Estimated
04:25PM 42.2084 -75.9796 90° East  Level Estimated
04:26PM 42.2084 -75.9796 90° East  Level Estimated
04:27PM 42.2084 -75.9796 90° East  Level Estimated
04:28PM 42.2084 -75.9796 90° East  Level Estimated
04:29PM 42.2084 -75.9796 90° East  Level Estimated
04:30PM 42.2084 -75.9796 90° East  Level Estimated